sensor_id;sensor_type;location;lat;lon;timestamp;temperature;humidity
439;DHT22;206;48.782;9.252;2023-02-12T00:00:03;8.00;43.00
439;DHT22;206;48.782;9.252;2023-02-12T00:02:28;8.00;43.00
439;DHT22;206;48.782;9.252;2023-02-12T00:04:54;8.00;43.00
439;DHT22;206;48.782;9.252;2023-02-12T00:07:20;8.00;43.10
439;DHT22;206;48.782;9.252;2023-02-12T00:09:45;8.00;43.00
439;DHT22;206;48.782;9.252;2023-02-12T00:12:11;8.00;43.10
439;DHT22;206;48.782;9.252;2023-02-12T00:14:37;8.00;43.00
439;DHT22;206;48.782;9.252;2023-02-12T00:17:03;8.00;43.00
439;DHT22;206;48.782;9.252;2023-02-12T00:19:29;8.00;43.40
439;DHT22;206;48.782;9.252;2023-02-12T00:21:55;8.00;43.20
439;DHT22;206;48.782;9.252;2023-02-12T00:24:20;8.00;43.10
439;DHT22;206;48.782;9.252;2023-02-12T00:26:46;8.00;43.00
439;DHT22;206;48.782;9.252;2023-02-12T00:29:13;8.00;43.10
439;DHT22;206;48.782;9.252;2023-02-12T00:31:38;8.00;43.10
439;DHT22;206;48.782;9.252;2023-02-12T00:34:04;8.00;43.10
439;DHT22;206;48.782;9.252;2023-02-12T00:36:30;8.00;42.60
439;DHT22;206;48.782;9.252;2023-02-12T00:38:57;8.00;43.40
439;DHT22;206;48.782;9.252;2023-02-12T00:41:23;8.00;42.60
439;DHT22;206;48.782;9.252;2023-02-12T00:43:50;8.00;42.30
439;DHT22;206;48.782;9.252;2023-02-12T00:46:16;8.00;42.40
439;DHT22;206;48.782;9.252;2023-02-12T00:48:41;8.00;42.90
439;DHT22;206;48.782;9.252;2023-02-12T00:51:07;7.90;43.00
439;DHT22;206;48.782;9.252;2023-02-12T00:53:33;7.90;43.50
439;DHT22;206;48.782;9.252;2023-02-12T00:55:59;7.90;42.80
439;DHT22;206;48.782;9.252;2023-02-12T00:58:26;7.90;43.00
439;DHT22;206;48.782;9.252;2023-02-12T01:00:53;7.90;42.80
439;DHT22;206;48.782;9.252;2023-02-12T01:03:18;7.90;42.70
439;DHT22;206;48.782;9.252;2023-02-12T01:05:44;7.90;42.50
439;DHT22;206;48.782;9.252;2023-02-12T01:08:14;7.90;42.20
439;DHT22;206;48.782;9.252;2023-02-12T01:10:41;7.90;42.00
439;DHT22;206;48.782;9.252;2023-02-12T01:13:08;7.90;42.00
439;DHT22;206;48.782;9.252;2023-02-12T01:15:35;7.90;41.90
439;DHT22;206;48.782;9.252;2023-02-12T01:18:00;7.90;42.00
439;DHT22;206;48.782;9.252;2023-02-12T01:20:26;7.90;42.10
439;DHT22;206;48.782;9.252;2023-02-12T01:22:52;7.90;42.00
439;DHT22;206;48.782;9.252;2023-02-12T01:25:18;7.90;41.80
439;DHT22;206;48.782;9.252;2023-02-12T01:27:44;7.90;41.70
439;DHT22;206;48.782;9.252;2023-02-12T01:30:11;7.90;41.70
439;DHT22;206;48.782;9.252;2023-02-12T01:32:37;7.90;41.60
439;DHT22;206;48.782;9.252;2023-02-12T01:35:04;7.90;41.80
439;DHT22;206;48.782;9.252;2023-02-12T01:37:29;8.00;41.80
439;DHT22;206;48.782;9.252;2023-02-12T01:39:55;8.00;41.50
439;DHT22;206;48.782;9.252;2023-02-12T01:42:20;8.00;42.20
439;DHT22;206;48.782;9.252;2023-02-12T01:47:42;8.00;41.70
439;DHT22;206;48.782;9.252;2023-02-12T01:50:11;8.00;41.70
439;DHT22;206;48.782;9.252;2023-02-12T01:52:39;7.90;41.40
439;DHT22;206;48.782;9.252;2023-02-12T01:55:07;7.90;41.90
439;DHT22;206;48.782;9.252;2023-02-12T01:57:39;7.90;41.60
439;DHT22;206;48.782;9.252;2023-02-12T02:00:18;7.90;41.50
439;DHT22;206;48.782;9.252;2023-02-12T02:03:04;7.90;41.60
439;DHT22;206;48.782;9.252;2023-02-12T02:05:46;7.90;41.40
439;DHT22;206;48.782;9.252;2023-02-12T02:08:14;7.90;41.90
439;DHT22;206;48.782;9.252;2023-02-12T02:10:40;7.80;42.40
439;DHT22;206;48.782;9.252;2023-02-12T02:13:06;7.70;42.80
439;DHT22;206;48.782;9.252;2023-02-12T02:15:55;7.70;42.80
439;DHT22;206;48.782;9.252;2023-02-12T02:27:46;7.70;43.00
439;DHT22;206;48.782;9.252;2023-02-12T02:33:14;7.70;42.80
439;DHT22;206;48.782;9.252;2023-02-12T02:35:58;7.80;42.90
439;DHT22;206;48.782;9.252;2023-02-12T02:38:54;7.70;42.80
439;DHT22;206;48.782;9.252;2023-02-12T02:41:32;7.70;42.80
439;DHT22;206;48.782;9.252;2023-02-12T02:44:04;7.70;42.80
439;DHT22;206;48.782;9.252;2023-02-12T02:46:43;7.70;42.80
439;DHT22;206;48.782;9.252;2023-02-12T02:49:23;7.70;42.80
439;DHT22;206;48.782;9.252;2023-02-12T02:51:54;7.70;42.80
439;DHT22;206;48.782;9.252;2023-02-12T02:54:33;7.70;42.80
439;DHT22;206;48.782;9.252;2023-02-12T02:57:07;7.70;42.80
439;DHT22;206;48.782;9.252;2023-02-12T02:59:39;7.70;42.80
439;DHT22;206;48.782;9.252;2023-02-12T03:02:19;7.70;42.80
439;DHT22;206;48.782;9.252;2023-02-12T03:04:49;7.70;42.80
439;DHT22;206;48.782;9.252;2023-02-12T03:07:20;7.70;42.80
439;DHT22;206;48.782;9.252;2023-02-12T03:09:56;7.80;42.90
439;DHT22;206;48.782;9.252;2023-02-12T03:12:32;7.80;42.90
439;DHT22;206;48.782;9.252;2023-02-12T03:15:29;7.80;42.90
439;DHT22;206;48.782;9.252;2023-02-12T03:17:57;7.80;42.90
439;DHT22;206;48.782;9.252;2023-02-12T03:20:29;7.80;42.90
439;DHT22;206;48.782;9.252;2023-02-12T03:23:20;7.80;42.90
439;DHT22;206;48.782;9.252;2023-02-12T03:25:55;7.80;43.60
439;DHT22;206;48.782;9.252;2023-02-12T03:28:28;7.80;42.90
439;DHT22;206;48.782;9.252;2023-02-12T03:36:53;7.80;42.60
439;DHT22;206;48.782;9.252;2023-02-12T03:42:18;7.70;42.00
439;DHT22;206;48.782;9.252;2023-02-12T03:47:43;7.70;42.00
439;DHT22;206;48.782;9.252;2023-02-12T03:52:40;7.70;41.70
439;DHT22;206;48.782;9.252;2023-02-12T03:55:07;7.60;42.30
439;DHT22;206;48.782;9.252;2023-02-12T03:57:39;7.60;42.10
439;DHT22;206;48.782;9.252;2023-02-12T04:00:10;7.60;42.70
439;DHT22;206;48.782;9.252;2023-02-12T04:02:36;7.60;42.70
439;DHT22;206;48.782;9.252;2023-02-12T04:05:05;7.60;42.50
439;DHT22;206;48.782;9.252;2023-02-12T04:07:31;7.60;42.50
439;DHT22;206;48.782;9.252;2023-02-12T04:09:57;7.50;42.70
439;DHT22;206;48.782;9.252;2023-02-12T04:12:42;7.40;42.60
439;DHT22;206;48.782;9.252;2023-02-12T04:17:47;7.40;42.50
439;DHT22;206;48.782;9.252;2023-02-12T04:25:51;7.50;42.70
439;DHT22;206;48.782;9.252;2023-02-12T04:31:02;7.60;42.70
439;DHT22;206;48.782;9.252;2023-02-12T04:33:41;7.50;42.60
439;DHT22;206;48.782;9.252;2023-02-12T04:36:20;7.50;42.70
439;DHT22;206;48.782;9.252;2023-02-12T04:38:54;7.50;42.60
439;DHT22;206;48.782;9.252;2023-02-12T04:41:21;7.50;42.30
439;DHT22;206;48.782;9.252;2023-02-12T04:43:47;7.60;42.70
439;DHT22;206;48.782;9.252;2023-02-12T04:46:13;7.60;42.50
439;DHT22;206;48.782;9.252;2023-02-12T04:48:58;7.50;42.30
439;DHT22;206;48.782;9.252;2023-02-12T04:51:24;7.60;42.20
439;DHT22;206;48.782;9.252;2023-02-12T04:53:50;7.60;41.80
439;DHT22;206;48.782;9.252;2023-02-12T04:56:16;7.60;41.80
439;DHT22;206;48.782;9.252;2023-02-12T04:58:42;7.60;41.90
439;DHT22;206;48.782;9.252;2023-02-12T05:01:08;7.60;41.90
439;DHT22;206;48.782;9.252;2023-02-12T05:03:35;7.60;41.60
439;DHT22;206;48.782;9.252;2023-02-12T05:06:05;7.50;41.90
439;DHT22;206;48.782;9.252;2023-02-12T05:08:31;7.50;42.20
439;DHT22;206;48.782;9.252;2023-02-12T05:11:01;7.50;42.20
439;DHT22;206;48.782;9.252;2023-02-12T05:13:27;7.50;42.60
439;DHT22;206;48.782;9.252;2023-02-12T05:15:52;7.40;42.50
439;DHT22;206;48.782;9.252;2023-02-12T05:18:18;7.40;42.50
439;DHT22;206;48.782;9.252;2023-02-12T05:20:44;7.40;42.60
439;DHT22;206;48.782;9.252;2023-02-12T05:23:09;7.40;42.80
439;DHT22;206;48.782;9.252;2023-02-12T05:25:35;7.50;42.00
439;DHT22;206;48.782;9.252;2023-02-12T05:28:00;7.50;41.70
439;DHT22;206;48.782;9.252;2023-02-12T05:30:26;7.50;41.60
439;DHT22;206;48.782;9.252;2023-02-12T05:32:51;7.40;42.00
439;DHT22;206;48.782;9.252;2023-02-12T05:35:17;7.40;42.30
439;DHT22;206;48.782;9.252;2023-02-12T05:37:43;7.40;42.60
439;DHT22;206;48.782;9.252;2023-02-12T05:40:09;7.40;42.60
439;DHT22;206;48.782;9.252;2023-02-12T05:42:34;7.40;42.50
439;DHT22;206;48.782;9.252;2023-02-12T05:45:00;7.40;42.40
439;DHT22;206;48.782;9.252;2023-02-12T05:47:25;7.40;42.30
439;DHT22;206;48.782;9.252;2023-02-12T05:49:51;7.40;42.10
439;DHT22;206;48.782;9.252;2023-02-12T05:52:16;7.40;41.90
439;DHT22;206;48.782;9.252;2023-02-12T05:54:42;7.40;42.60
439;DHT22;206;48.782;9.252;2023-02-12T05:57:08;7.30;42.50
439;DHT22;206;48.782;9.252;2023-02-12T05:59:33;7.30;42.50
439;DHT22;206;48.782;9.252;2023-02-12T06:01:59;7.20;43.10
439;DHT22;206;48.782;9.252;2023-02-12T06:04:26;7.20;43.50
439;DHT22;206;48.782;9.252;2023-02-12T06:06:53;7.20;43.60
439;DHT22;206;48.782;9.252;2023-02-12T06:09:20;7.10;44.30
439;DHT22;206;48.782;9.252;2023-02-12T06:11:46;7.10;44.70
439;DHT22;206;48.782;9.252;2023-02-12T06:14:15;7.10;44.60
439;DHT22;206;48.782;9.252;2023-02-12T06:16:44;7.10;45.00
439;DHT22;206;48.782;9.252;2023-02-12T06:19:10;7.10;44.80
439;DHT22;206;48.782;9.252;2023-02-12T06:21:35;7.10;45.00
439;DHT22;206;48.782;9.252;2023-02-12T06:24:01;7.00;45.50
439;DHT22;206;48.782;9.252;2023-02-12T06:26:27;7.00;45.60
439;DHT22;206;48.782;9.252;2023-02-12T06:28:53;7.00;45.70
439;DHT22;206;48.782;9.252;2023-02-12T06:31:33;7.10;45.60
439;DHT22;206;48.782;9.252;2023-02-12T06:34:03;7.10;45.30
439;DHT22;206;48.782;9.252;2023-02-12T06:36:29;7.10;45.30
439;DHT22;206;48.782;9.252;2023-02-12T06:38:54;7.20;44.90
439;DHT22;206;48.782;9.252;2023-02-12T06:41:21;7.30;44.60
439;DHT22;206;48.782;9.252;2023-02-12T06:43:47;7.30;44.00
439;DHT22;206;48.782;9.252;2023-02-12T06:46:13;7.40;43.80
439;DHT22;206;48.782;9.252;2023-02-12T06:48:39;7.40;43.30
439;DHT22;206;48.782;9.252;2023-02-12T06:51:16;7.40;43.00
439;DHT22;206;48.782;9.252;2023-02-12T06:53:42;7.50;42.60
439;DHT22;206;48.782;9.252;2023-02-12T06:56:09;7.60;42.70
439;DHT22;206;48.782;9.252;2023-02-12T06:58:36;7.60;42.70
439;DHT22;206;48.782;9.252;2023-02-12T07:01:10;7.60;42.70
439;DHT22;206;48.782;9.252;2023-02-12T07:03:38;7.70;42.00
439;DHT22;206;48.782;9.252;2023-02-12T07:06:05;7.70;41.70
439;DHT22;206;48.782;9.252;2023-02-12T07:08:30;7.60;41.90
439;DHT22;206;48.782;9.252;2023-02-12T07:10:56;7.70;42.00
439;DHT22;206;48.782;9.252;2023-02-12T07:13:22;7.60;41.80
439;DHT22;206;48.782;9.252;2023-02-12T07:15:47;7.70;41.80
439;DHT22;206;48.782;9.252;2023-02-12T07:18:13;7.70;41.60
439;DHT22;206;48.782;9.252;2023-02-12T07:20:38;7.80;41.40
439;DHT22;206;48.782;9.252;2023-02-12T07:23:04;7.90;40.90
439;DHT22;206;48.782;9.252;2023-02-12T07:25:29;7.90;40.60
439;DHT22;206;48.782;9.252;2023-02-12T07:27:55;8.00;40.10
439;DHT22;206;48.782;9.252;2023-02-12T07:30:21;8.00;40.00
439;DHT22;206;48.782;9.252;2023-02-12T07:32:46;8.10;40.20
439;DHT22;206;48.782;9.252;2023-02-12T07:35:12;8.10;39.70
439;DHT22;206;48.782;9.252;2023-02-12T07:37:37;8.10;39.20
439;DHT22;206;48.782;9.252;2023-02-12T07:40:03;8.10;39.80
439;DHT22;206;48.782;9.252;2023-02-12T07:42:29;8.00;39.80
439;DHT22;206;48.782;9.252;2023-02-12T07:44:55;7.90;40.00
439;DHT22;206;48.782;9.252;2023-02-12T07:47:20;7.90;40.30
439;DHT22;206;48.782;9.252;2023-02-12T07:49:46;7.80;40.60
439;DHT22;206;48.782;9.252;2023-02-12T07:52:12;7.80;41.20
439;DHT22;206;48.782;9.252;2023-02-12T07:54:37;7.80;41.20
439;DHT22;206;48.782;9.252;2023-02-12T07:57:03;7.80;41.10
439;DHT22;206;48.782;9.252;2023-02-12T07:59:28;7.90;41.20
439;DHT22;206;48.782;9.252;2023-02-12T08:01:54;8.00;40.90
439;DHT22;206;48.782;9.252;2023-02-12T08:04:23;8.10;40.30
439;DHT22;206;48.782;9.252;2023-02-12T08:06:51;8.20;39.60
439;DHT22;206;48.782;9.252;2023-02-12T08:09:20;8.30;38.50
439;DHT22;206;48.782;9.252;2023-02-12T08:11:46;8.40;38.50
439;DHT22;206;48.782;9.252;2023-02-12T08:14:14;8.50;38.60
439;DHT22;206;48.782;9.252;2023-02-12T08:16:42;8.50;38.20
439;DHT22;206;48.782;9.252;2023-02-12T08:19:07;8.50;38.30
439;DHT22;206;48.782;9.252;2023-02-12T08:21:33;8.60;38.10
439;DHT22;206;48.782;9.252;2023-02-12T08:23:59;8.70;37.50
439;DHT22;206;48.782;9.252;2023-02-12T08:26:33;8.70;37.30
439;DHT22;206;48.782;9.252;2023-02-12T08:29:08;8.80;37.60
439;DHT22;206;48.782;9.252;2023-02-12T08:31:36;9.00;37.00
439;DHT22;206;48.782;9.252;2023-02-12T08:34:03;9.00;36.10
439;DHT22;206;48.782;9.252;2023-02-12T08:36:39;9.00;36.00
439;DHT22;206;48.782;9.252;2023-02-12T08:39:05;9.00;36.00
439;DHT22;206;48.782;9.252;2023-02-12T08:41:31;9.00;36.60
439;DHT22;206;48.782;9.252;2023-02-12T08:43:58;9.00;36.00
439;DHT22;206;48.782;9.252;2023-02-12T08:46:26;9.20;36.00
439;DHT22;206;48.782;9.252;2023-02-12T08:49:01;9.30;35.40
439;DHT22;206;48.782;9.252;2023-02-12T08:51:29;9.40;34.80
439;DHT22;206;48.782;9.252;2023-02-12T08:54:01;9.50;34.40
439;DHT22;206;48.782;9.252;2023-02-12T08:56:28;9.50;35.10
439;DHT22;206;48.782;9.252;2023-02-12T08:58:56;9.50;34.40
439;DHT22;206;48.782;9.252;2023-02-12T09:01:24;9.60;34.50
439;DHT22;206;48.782;9.252;2023-02-12T09:03:51;9.60;34.00
439;DHT22;206;48.782;9.252;2023-02-12T09:06:19;9.70;33.80
439;DHT22;206;48.782;9.252;2023-02-12T09:08:44;9.70;33.90
439;DHT22;206;48.782;9.252;2023-02-12T09:11:15;9.80;34.00
439;DHT22;206;48.782;9.252;2023-02-12T09:13:42;9.80;34.10
439;DHT22;206;48.782;9.252;2023-02-12T09:16:08;9.80;34.60
439;DHT22;206;48.782;9.252;2023-02-12T09:18:34;9.90;33.80
439;DHT22;206;48.782;9.252;2023-02-12T09:21:03;10.10;32.90
439;DHT22;206;48.782;9.252;2023-02-12T09:23:29;10.30;32.30
439;DHT22;206;48.782;9.252;2023-02-12T09:25:55;10.40;31.50
439;DHT22;206;48.782;9.252;2023-02-12T09:28:21;10.60;31.30
439;DHT22;206;48.782;9.252;2023-02-12T09:30:46;10.70;31.20
439;DHT22;206;48.782;9.252;2023-02-12T09:33:12;10.90;31.20
439;DHT22;206;48.782;9.252;2023-02-12T09:35:38;11.00;30.40
439;DHT22;206;48.782;9.252;2023-02-12T09:38:05;11.10;30.50
439;DHT22;206;48.782;9.252;2023-02-12T09:43:14;11.30;30.50
439;DHT22;206;48.782;9.252;2023-02-12T09:45:49;11.40;30.60
439;DHT22;206;48.782;9.252;2023-02-12T09:48:34;11.50;30.30
439;DHT22;206;48.782;9.252;2023-02-12T09:51:08;11.50;30.10
439;DHT22;206;48.782;9.252;2023-02-12T09:53:38;11.60;30.20
439;DHT22;206;48.782;9.252;2023-02-12T09:56:23;11.60;30.20
439;DHT22;206;48.782;9.252;2023-02-12T09:58:54;11.70;30.30
439;DHT22;206;48.782;9.252;2023-02-12T10:01:21;11.80;30.10
439;DHT22;206;48.782;9.252;2023-02-12T10:03:49;11.90;30.00
439;DHT22;206;48.782;9.252;2023-02-12T10:06:30;11.90;29.40
439;DHT22;206;48.782;9.252;2023-02-12T10:27:45;12.10;29.90
439;DHT22;206;48.782;9.252;2023-02-12T10:32:50;12.30;29.00
439;DHT22;206;48.782;9.252;2023-02-12T10:35:18;12.40;28.80
439;DHT22;206;48.782;9.252;2023-02-12T10:37:59;12.50;28.20
439;DHT22;206;48.782;9.252;2023-02-12T10:40:31;12.50;28.40
439;DHT22;206;48.782;9.252;2023-02-12T10:42:59;12.50;28.70
439;DHT22;206;48.782;9.252;2023-02-12T10:45:32;12.50;28.00
439;DHT22;206;48.782;9.252;2023-02-12T10:48:09;12.50;27.80
439;DHT22;206;48.782;9.252;2023-02-12T10:53:38;12.50;28.10
439;DHT22;206;48.782;9.252;2023-02-12T10:58:39;12.30;28.70
439;DHT22;206;48.782;9.252;2023-02-12T11:01:15;12.40;28.30
439;DHT22;206;48.782;9.252;2023-02-12T11:03:42;12.50;28.50
439;DHT22;206;48.782;9.252;2023-02-12T11:06:26;12.60;28.20
439;DHT22;206;48.782;9.252;2023-02-12T11:08:52;12.60;28.40
439;DHT22;206;48.782;9.252;2023-02-12T11:13:58;12.60;29.60
439;DHT22;206;48.782;9.252;2023-02-12T11:16:39;12.40;29.80
439;DHT22;206;48.782;9.252;2023-02-12T11:19:19;12.20;30.70
439;DHT22;206;48.782;9.252;2023-02-12T11:21:46;11.80;32.00
439;DHT22;206;48.782;9.252;2023-02-12T11:26:49;11.20;34.90
439;DHT22;206;48.782;9.252;2023-02-12T11:29:19;11.00;35.00
439;DHT22;206;48.782;9.252;2023-02-12T11:32:03;10.90;36.30
439;DHT22;206;48.782;9.252;2023-02-12T11:34:29;11.00;35.60
439;DHT22;206;48.782;9.252;2023-02-12T11:36:56;10.80;36.20
439;DHT22;206;48.782;9.252;2023-02-12T11:39:31;10.90;36.10
439;DHT22;206;48.782;9.252;2023-02-12T11:42:04;10.80;36.60
439;DHT22;206;48.782;9.252;2023-02-12T11:44:36;10.90;36.10
439;DHT22;206;48.782;9.252;2023-02-12T11:47:15;10.70;37.10
439;DHT22;206;48.782;9.252;2023-02-12T11:49:49;10.50;38.10
439;DHT22;206;48.782;9.252;2023-02-12T11:52:30;10.60;37.90
439;DHT22;206;48.782;9.252;2023-02-12T11:54:59;10.70;37.30
439;DHT22;206;48.782;9.252;2023-02-12T12:02:57;10.80;37.30
439;DHT22;206;48.782;9.252;2023-02-12T12:05:29;10.80;37.10
439;DHT22;206;48.782;9.252;2023-02-12T12:07:58;10.80;37.40
439;DHT22;206;48.782;9.252;2023-02-12T12:10:33;10.80;37.00
439;DHT22;206;48.782;9.252;2023-02-12T12:13:08;10.80;36.90
439;DHT22;206;48.782;9.252;2023-02-12T12:15:45;11.00;36.70
439;DHT22;206;48.782;9.252;2023-02-12T12:21:27;11.10;36.10
439;DHT22;206;48.782;9.252;2023-02-12T12:24:01;11.20;35.00
439;DHT22;206;48.782;9.252;2023-02-12T12:26:29;11.20;35.30
439;DHT22;206;48.782;9.252;2023-02-12T12:31:41;11.50;35.20
439;DHT22;206;48.782;9.252;2023-02-12T12:34:22;11.20;35.90
439;DHT22;206;48.782;9.252;2023-02-12T12:39:39;10.70;37.90
439;DHT22;206;48.782;9.252;2023-02-12T12:47:55;10.50;39.30
439;DHT22;206;48.782;9.252;2023-02-12T12:59:08;10.50;39.30
439;DHT22;206;48.782;9.252;2023-02-12T13:15:20;10.20;42.00
439;DHT22;206;48.782;9.252;2023-02-12T13:20:39;10.20;41.90
439;DHT22;206;48.782;9.252;2023-02-12T13:23:14;10.20;42.30
439;DHT22;206;48.782;9.252;2023-02-12T13:25:52;10.30;41.70
439;DHT22;206;48.782;9.252;2023-02-12T13:28:33;10.30;41.40
439;DHT22;206;48.782;9.252;2023-02-12T13:31:00;10.30;41.70
439;DHT22;206;48.782;9.252;2023-02-12T13:36:12;10.30;42.10
439;DHT22;206;48.782;9.252;2023-02-12T13:38:42;10.40;42.00
439;DHT22;206;48.782;9.252;2023-02-12T13:41:10;10.50;41.30
439;DHT22;206;48.782;9.252;2023-02-12T13:43:44;10.50;41.20
439;DHT22;206;48.782;9.252;2023-02-12T13:52:08;10.60;40.50
439;DHT22;206;48.782;9.252;2023-02-12T13:57:22;10.70;40.50
439;DHT22;206;48.782;9.252;2023-02-12T13:59:55;10.70;40.60
439;DHT22;206;48.782;9.252;2023-02-12T14:07:47;10.80;40.00
439;DHT22;206;48.782;9.252;2023-02-12T14:10:40;11.00;39.50
439;DHT22;206;48.782;9.252;2023-02-12T14:13:23;11.10;38.40
439;DHT22;206;48.782;9.252;2023-02-12T14:15:54;11.30;37.90
439;DHT22;206;48.782;9.252;2023-02-12T14:18:35;11.40;36.40
439;DHT22;206;48.782;9.252;2023-02-12T14:23:37;11.40;36.80
439;DHT22;206;48.782;9.252;2023-02-12T14:36:39;11.30;36.50
439;DHT22;206;48.782;9.252;2023-02-12T14:46:55;11.00;39.10
439;DHT22;206;48.782;9.252;2023-02-12T14:54:49;10.90;39.60
439;DHT22;206;48.782;9.252;2023-02-12T14:57:25;10.80;39.60
439;DHT22;206;48.782;9.252;2023-02-12T14:59:55;10.80;39.60
439;DHT22;206;48.782;9.252;2023-02-12T15:02:35;10.80;39.60
439;DHT22;206;48.782;9.252;2023-02-12T15:05:06;10.70;40.40
439;DHT22;206;48.782;9.252;2023-02-12T15:07:42;10.80;39.60
439;DHT22;206;48.782;9.252;2023-02-12T15:10:17;10.70;39.80
439;DHT22;206;48.782;9.252;2023-02-12T15:16:06;10.70;40.50
439;DHT22;206;48.782;9.252;2023-02-12T15:21:15;10.60;40.60
439;DHT22;206;48.782;9.252;2023-02-12T15:23:45;10.50;40.60
439;DHT22;206;48.782;9.252;2023-02-12T15:26:20;10.60;40.80
439;DHT22;206;48.782;9.252;2023-02-12T15:28:49;10.60;40.30
439;DHT22;206;48.782;9.252;2023-02-12T15:31:18;10.60;40.40
439;DHT22;206;48.782;9.252;2023-02-12T15:33:55;10.80;39.60
439;DHT22;206;48.782;9.252;2023-02-12T15:36:26;11.10;38.60
439;DHT22;206;48.782;9.252;2023-02-12T15:39:01;11.40;37.00
439;DHT22;206;48.782;9.252;2023-02-12T15:43:58;11.20;37.00
439;DHT22;206;48.782;9.252;2023-02-12T15:46:23;11.00;37.60
439;DHT22;206;48.782;9.252;2023-02-12T15:48:49;10.90;38.00
439;DHT22;206;48.782;9.252;2023-02-12T15:53:53;10.70;38.80
439;DHT22;206;48.782;9.252;2023-02-12T15:56:21;10.60;39.00
439;DHT22;206;48.782;9.252;2023-02-12T15:58:58;10.60;39.40
439;DHT22;206;48.782;9.252;2023-02-12T16:01:33;10.60;39.70
439;DHT22;206;48.782;9.252;2023-02-12T16:04:04;10.50;40.20
439;DHT22;206;48.782;9.252;2023-02-12T16:06:32;10.40;41.20
439;DHT22;206;48.782;9.252;2023-02-12T16:11:32;10.30;41.60
439;DHT22;206;48.782;9.252;2023-02-12T16:14:01;10.20;41.90
439;DHT22;206;48.782;9.252;2023-02-12T16:16:34;10.20;41.70
439;DHT22;206;48.782;9.252;2023-02-12T16:19:18;10.20;41.70
439;DHT22;206;48.782;9.252;2023-02-12T16:21:48;10.20;41.90
439;DHT22;206;48.782;9.252;2023-02-12T16:24:27;10.10;42.50
439;DHT22;206;48.782;9.252;2023-02-12T16:26:55;10.10;42.60
439;DHT22;206;48.782;9.252;2023-02-12T16:29:21;10.00;42.50
439;DHT22;206;48.782;9.252;2023-02-12T16:31:59;10.00;42.90
439;DHT22;206;48.782;9.252;2023-02-12T16:34:27;10.00;43.00
439;DHT22;206;48.782;9.252;2023-02-12T16:36:54;9.90;43.90
439;DHT22;206;48.782;9.252;2023-02-12T16:42:14;9.90;44.60
439;DHT22;206;48.782;9.252;2023-02-12T16:44:40;9.80;45.20
439;DHT22;206;48.782;9.252;2023-02-12T16:47:05;9.70;45.60
439;DHT22;206;48.782;9.252;2023-02-12T16:49:31;9.70;46.00
439;DHT22;206;48.782;9.252;2023-02-12T16:55:00;9.50;47.00
439;DHT22;206;48.782;9.252;2023-02-12T16:57:25;9.40;47.30
439;DHT22;206;48.782;9.252;2023-02-12T16:59:51;9.40;47.70
439;DHT22;206;48.782;9.252;2023-02-12T17:02:17;9.30;48.20
439;DHT22;206;48.782;9.252;2023-02-12T17:04:43;9.20;48.90
439;DHT22;206;48.782;9.252;2023-02-12T17:07:20;9.00;49.70
439;DHT22;206;48.782;9.252;2023-02-12T17:09:46;8.90;50.30
439;DHT22;206;48.782;9.252;2023-02-12T17:12:11;8.90;50.70
439;DHT22;206;48.782;9.252;2023-02-12T17:14:37;8.80;51.10
439;DHT22;206;48.782;9.252;2023-02-12T17:17:03;8.80;51.50
439;DHT22;206;48.782;9.252;2023-02-12T17:19:28;8.70;52.00
439;DHT22;206;48.782;9.252;2023-02-12T17:21:54;8.60;52.60
439;DHT22;206;48.782;9.252;2023-02-12T17:24:25;8.60;52.70
439;DHT22;206;48.782;9.252;2023-02-12T17:26:52;8.60;53.20
439;DHT22;206;48.782;9.252;2023-02-12T17:29:20;8.50;53.10
439;DHT22;206;48.782;9.252;2023-02-12T17:31:47;8.50;53.10
439;DHT22;206;48.782;9.252;2023-02-12T17:34:13;8.40;53.00
439;DHT22;206;48.782;9.252;2023-02-12T17:36:39;8.40;53.00
439;DHT22;206;48.782;9.252;2023-02-12T17:39:06;8.40;53.60
439;DHT22;206;48.782;9.252;2023-02-12T17:41:32;8.30;54.00
439;DHT22;206;48.782;9.252;2023-02-12T17:43:58;8.30;53.80
439;DHT22;206;48.782;9.252;2023-02-12T17:46:25;8.20;54.10
439;DHT22;206;48.782;9.252;2023-02-12T17:48:51;8.20;54.40
439;DHT22;206;48.782;9.252;2023-02-12T17:51:17;8.20;54.70
439;DHT22;206;48.782;9.252;2023-02-12T17:53:43;8.10;54.60
439;DHT22;206;48.782;9.252;2023-02-12T17:56:15;8.10;54.60
439;DHT22;206;48.782;9.252;2023-02-12T17:58:42;8.10;54.60
439;DHT22;206;48.782;9.252;2023-02-12T18:01:11;8.10;54.70
439;DHT22;206;48.782;9.252;2023-02-12T18:03:37;8.00;54.70
439;DHT22;206;48.782;9.252;2023-02-12T18:06:02;8.00;54.90
439;DHT22;206;48.782;9.252;2023-02-12T18:08:29;8.00;54.80
439;DHT22;206;48.782;9.252;2023-02-12T18:10:55;8.00;55.00
439;DHT22;206;48.782;9.252;2023-02-12T18:13:20;7.90;54.70
439;DHT22;206;48.782;9.252;2023-02-12T18:15:46;7.90;54.90
439;DHT22;206;48.782;9.252;2023-02-12T18:18:12;7.90;54.80
439;DHT22;206;48.782;9.252;2023-02-12T18:20:41;7.80;55.10
439;DHT22;206;48.782;9.252;2023-02-12T18:23:07;7.70;54.90
439;DHT22;206;48.782;9.252;2023-02-12T18:25:34;7.70;54.80
439;DHT22;206;48.782;9.252;2023-02-12T18:27:59;7.60;54.70
439;DHT22;206;48.782;9.252;2023-02-12T18:30:28;7.60;55.00
439;DHT22;206;48.782;9.252;2023-02-12T18:32:53;7.50;54.90
439;DHT22;206;48.782;9.252;2023-02-12T18:35:19;7.40;54.60
439;DHT22;206;48.782;9.252;2023-02-12T18:37:44;7.40;54.50
439;DHT22;206;48.782;9.252;2023-02-12T18:40:12;7.30;54.80
439;DHT22;206;48.782;9.252;2023-02-12T18:42:38;7.20;55.30
439;DHT22;206;48.782;9.252;2023-02-12T18:45:04;7.20;55.80
439;DHT22;206;48.782;9.252;2023-02-12T18:47:30;7.10;56.10
439;DHT22;206;48.782;9.252;2023-02-12T18:49:56;7.10;55.80
439;DHT22;206;48.782;9.252;2023-02-12T18:52:22;7.10;55.40
439;DHT22;206;48.782;9.252;2023-02-12T18:54:48;7.00;55.60
439;DHT22;206;48.782;9.252;2023-02-12T18:57:13;6.90;55.60
439;DHT22;206;48.782;9.252;2023-02-12T18:59:39;6.90;56.90
439;DHT22;206;48.782;9.252;2023-02-12T19:02:06;6.80;56.90
439;DHT22;206;48.782;9.252;2023-02-12T19:04:32;6.80;56.60
439;DHT22;206;48.782;9.252;2023-02-12T19:06:57;6.70;57.30
439;DHT22;206;48.782;9.252;2023-02-12T19:09:24;6.60;57.50
439;DHT22;206;48.782;9.252;2023-02-12T19:11:55;6.60;58.00
439;DHT22;206;48.782;9.252;2023-02-12T19:14:23;6.50;58.10
439;DHT22;206;48.782;9.252;2023-02-12T19:16:49;6.50;58.90
439;DHT22;206;48.782;9.252;2023-02-12T19:19:15;6.50;57.90
439;DHT22;206;48.782;9.252;2023-02-12T19:21:41;6.40;57.60
439;DHT22;206;48.782;9.252;2023-02-12T19:24:09;6.40;58.00
439;DHT22;206;48.782;9.252;2023-02-12T19:26:35;6.30;57.90
439;DHT22;206;48.782;9.252;2023-02-12T19:29:02;6.20;58.60
439;DHT22;206;48.782;9.252;2023-02-12T19:31:31;6.20;58.80
439;DHT22;206;48.782;9.252;2023-02-12T19:34:03;6.20;58.90
439;DHT22;206;48.782;9.252;2023-02-12T19:36:30;6.10;59.40
439;DHT22;206;48.782;9.252;2023-02-12T19:38:58;6.10;60.00
439;DHT22;206;48.782;9.252;2023-02-12T19:41:26;6.10;60.40
439;DHT22;206;48.782;9.252;2023-02-12T19:43:57;6.10;60.40
439;DHT22;206;48.782;9.252;2023-02-12T19:46:25;6.00;60.90
439;DHT22;206;48.782;9.252;2023-02-12T19:48:55;6.00;62.00
439;DHT22;206;48.782;9.252;2023-02-12T19:51:21;6.00;62.90
439;DHT22;206;48.782;9.252;2023-02-12T19:53:49;6.00;62.80
439;DHT22;206;48.782;9.252;2023-02-12T19:56:15;6.00;61.80
439;DHT22;206;48.782;9.252;2023-02-12T19:58:41;5.90;61.50
439;DHT22;206;48.782;9.252;2023-02-12T20:01:10;5.90;60.80